createdAt,value
2018-09-15T00:02:28.206Z,5.07
2018-09-15T00:04:57.100Z,5.03
2018-09-15T00:07:26.096Z,4.73
2018-09-15T00:09:55.003Z,5.40
2018-09-15T00:12:23.925Z,5.10
2018-09-15T00:14:52.824Z,5.07
2018-09-15T00:17:21.860Z,5.33
2018-09-15T00:19:50.856Z,5.23
2018-09-15T00:22:19.850Z,5.23
2018-09-15T00:24:48.835Z,4.83
2018-09-15T00:27:18.149Z,5.07
2018-09-15T00:29:47.341Z,4.83
2018-09-15T00:32:16.241Z,5.27
2018-09-15T00:34:45.172Z,4.90
2018-09-15T00:37:14.080Z,4.67
2018-09-15T00:39:43.025Z,4.93
2018-09-15T00:42:11.939Z,4.33
2018-09-15T00:44:40.949Z,4.90
2018-09-15T00:47:09.819Z,4.67
2018-09-15T00:49:38.792Z,4.63
2018-09-15T00:52:07.723Z,4.90
2018-09-15T00:54:36.602Z,5.20
2018-09-15T00:57:05.667Z,5.07
2018-09-15T00:59:34.547Z,4.30
2018-09-15T01:02:03.465Z,4.97
2018-09-15T01:04:32.397Z,5.23
2018-09-15T01:07:01.376Z,4.70
2018-09-15T01:09:30.283Z,5.03
2018-09-15T01:11:59.283Z,4.03
2018-09-15T01:14:28.266Z,4.20
2018-09-15T01:16:57.104Z,4.73
2018-09-15T01:19:26.320Z,4.80
2018-09-15T01:21:55.231Z,4.40
2018-09-15T01:24:24.244Z,5.17
2018-09-15T01:26:53.354Z,4.70
2018-09-15T01:29:22.254Z,4.63
2018-09-15T01:31:51.159Z,4.97
2018-09-15T01:34:20.157Z,4.87
2018-09-15T01:36:49.294Z,4.90
2018-09-15T01:39:18.186Z,4.93
2018-09-15T01:41:47.089Z,5.10
2018-09-15T01:44:15.991Z,4.93
2018-09-15T01:46:44.930Z,5.23
2018-09-15T01:49:13.827Z,4.97
2018-09-15T01:51:42.775Z,4.83
2018-09-15T01:54:11.663Z,4.70
2018-09-15T01:56:40.619Z,5.33
2018-09-15T01:59:09.620Z,5.50
2018-09-15T02:01:38.527Z,4.87
2018-09-15T02:04:08.049Z,4.53
2018-09-15T02:06:37.081Z,4.60
2018-09-15T02:09:10.027Z,4.60
2018-09-15T02:11:38.932Z,4.83
2018-09-15T02:14:07.887Z,4.87
2018-09-15T02:16:36.831Z,4.97
2018-09-15T02:19:05.775Z,5.13
2018-09-15T02:21:34.700Z,4.80
2018-09-15T02:24:03.671Z,5.20
2018-09-15T02:26:32.680Z,5.10
2018-09-15T02:29:01.600Z,4.57
2018-09-15T02:31:30.533Z,5.27
2018-09-15T02:33:59.423Z,5.70
2018-09-15T02:36:28.433Z,5.50
2018-09-15T02:38:57.353Z,5.73
2018-09-15T02:41:26.286Z,5.27
2018-09-15T02:43:55.237Z,5.57
2018-09-15T02:46:24.211Z,4.70
2018-09-15T02:48:53.126Z,5.37
2018-09-15T02:51:22.012Z,5.80
2018-09-15T02:53:50.928Z,5.77
2018-09-15T02:56:19.815Z,6.10
2018-09-15T02:58:48.796Z,5.50
2018-09-15T03:01:17.704Z,6.40
2018-09-15T03:03:46.617Z,6.07
2018-09-15T03:06:15.601Z,6.30
2018-09-15T03:08:44.588Z,5.77
2018-09-15T03:11:13.562Z,6.27
2018-09-15T03:13:42.572Z,6.10
2018-09-15T03:16:11.481Z,7.50
2018-09-15T03:18:40.374Z,6.47
2018-09-15T03:21:09.283Z,7.70
2018-09-15T03:23:38.184Z,6.57
2018-09-15T03:26:07.116Z,6.40
2018-09-15T03:28:36.004Z,6.33
2018-09-15T03:31:05.017Z,6.50
2018-09-15T03:33:33.915Z,6.00
2018-09-15T03:36:02.812Z,7.73
2018-09-15T03:38:31.731Z,8.53
2018-09-15T03:41:00.666Z,6.83
2018-09-15T03:43:29.575Z,6.97
2018-09-15T03:45:58.456Z,6.77
2018-09-15T03:48:27.346Z,6.90
2018-09-15T03:50:56.240Z,6.77
2018-09-15T03:53:25.200Z,6.47
2018-09-15T03:55:54.111Z,6.53
2018-09-15T03:58:23.120Z,6.20
2018-09-15T04:00:53.101Z,6.50
2018-09-15T04:03:23.004Z,7.43
2018-09-15T04:05:51.938Z,7.60
2018-09-15T04:08:21.312Z,6.37
2018-09-15T04:10:50.486Z,6.20
2018-09-15T04:13:19.368Z,6.17
2018-09-15T04:15:48.340Z,6.33
2018-09-15T04:18:17.753Z,5.67
2018-09-15T04:20:48.354Z,6.40
2018-09-15T04:23:17.558Z,6.10
2018-09-15T04:25:46.710Z,6.33
2018-09-15T04:28:15.670Z,6.07
2018-09-15T04:30:44.535Z,6.37
2018-09-15T04:33:13.454Z,6.47
2018-09-15T04:35:42.369Z,6.70
2018-09-15T04:38:11.332Z,7.00
2018-09-15T04:40:40.271Z,7.10
2018-09-15T04:43:09.165Z,6.93
2018-09-15T04:45:38.077Z,6.60
2018-09-15T04:48:06.987Z,6.73
2018-09-15T04:50:35.903Z,7.00
2018-09-15T04:53:04.800Z,7.27
2018-09-15T04:55:33.751Z,7.27
2018-09-15T04:58:02.638Z,6.73
2018-09-15T05:00:31.592Z,7.20
2018-09-15T05:03:00.524Z,7.03
2018-09-15T05:05:29.443Z,6.80
2018-09-15T05:07:58.411Z,7.07
2018-09-15T05:10:27.459Z,7.47
2018-09-15T05:12:56.411Z,8.00
2018-09-15T05:15:25.309Z,7.20
2018-09-15T05:17:54.263Z,6.87
2018-09-15T05:20:23.154Z,7.30
2018-09-15T05:22:52.047Z,7.20
2018-09-15T05:25:20.948Z,7.40
2018-09-15T05:27:49.830Z,7.30
2018-09-15T05:30:18.739Z,7.03
2018-09-15T05:32:47.635Z,7.13
2018-09-15T05:35:16.608Z,6.97
2018-09-15T05:37:45.499Z,6.90
2018-09-15T05:40:14.388Z,6.33
2018-09-15T05:42:43.308Z,6.73
2018-09-15T05:45:12.188Z,6.73
2018-09-15T05:47:41.079Z,6.97
2018-09-15T05:50:09.983Z,6.70
2018-09-15T05:52:38.988Z,7.20
2018-09-15T05:55:08.234Z,7.13
2018-09-15T05:57:37.187Z,7.57
2018-09-15T06:00:06.436Z,8.20
2018-09-15T06:02:35.312Z,7.37
2018-09-15T06:05:04.254Z,8.37
2018-09-15T06:07:33.196Z,8.90
2018-09-15T06:10:02.161Z,7.93
2018-09-15T06:12:31.082Z,8.27
2018-09-15T06:15:00.088Z,8.37
2018-09-15T06:17:29.060Z,10.60
2018-09-15T06:19:58.001Z,10.30
2018-09-15T06:22:27.214Z,10.43
2018-09-15T06:24:56.142Z,89.60
2018-09-15T06:27:25.042Z,13.60
2018-09-15T06:29:53.981Z,13.43
2018-09-15T06:32:22.897Z,31.47
2018-09-15T06:34:51.842Z,13.93
2018-09-15T06:37:20.844Z,13.27
2018-09-15T06:39:49.777Z,13.53
2018-09-15T06:42:18.714Z,12.33
2018-09-15T06:44:47.746Z,14.13
2018-09-15T06:47:16.670Z,13.17
2018-09-15T06:49:45.612Z,12.83
2018-09-15T06:52:14.501Z,14.53
2018-09-15T06:54:43.455Z,15.27
2018-09-15T06:57:12.427Z,15.93
2018-09-15T06:59:41.430Z,17.70
2018-09-15T07:02:10.335Z,29.50
2018-09-15T07:04:39.238Z,17.77
2018-09-15T07:07:08.297Z,20.40
2018-09-15T07:09:37.171Z,39.00
2018-09-15T07:12:06.076Z,24.83
2018-09-15T07:14:34.964Z,18.67
2018-09-15T07:17:03.897Z,13.57
2018-09-15T07:19:32.813Z,11.57
2018-09-15T07:22:01.792Z,34.70
2018-09-15T07:24:30.810Z,21.43
2018-09-15T07:26:59.731Z,23.93
2018-09-15T07:29:28.773Z,21.80
2018-09-15T07:31:57.737Z,18.37
2018-09-15T07:34:26.668Z,14.63
2018-09-15T07:36:55.561Z,12.50
2018-09-15T07:39:24.576Z,15.67
2018-09-15T07:41:53.497Z,19.03
2018-09-15T07:44:22.723Z,13.60
2018-09-15T07:46:51.650Z,19.37
2018-09-15T07:49:20.584Z,13.47
2018-09-15T07:51:49.560Z,11.27
2018-09-15T07:54:18.459Z,13.70
2018-09-15T07:56:47.379Z,13.97
2018-09-15T07:59:16.371Z,15.63
2018-09-15T08:01:45.344Z,14.33
2018-09-15T08:04:14.326Z,14.43
2018-09-15T08:06:43.203Z,9.97
2018-09-15T08:09:12.112Z,10.27
2018-09-15T08:11:41.012Z,10.63
2018-09-15T08:14:09.935Z,10.50
2018-09-15T08:16:38.856Z,41.80
2018-09-15T08:19:07.808Z,15.90
2018-09-15T08:21:36.742Z,8.73
2018-09-15T08:24:05.677Z,9.30
2018-09-15T08:26:34.675Z,8.87
2018-09-15T08:29:03.524Z,8.07
2018-09-15T08:31:32.452Z,8.30
2018-09-15T08:34:01.373Z,8.90
2018-09-15T08:36:30.291Z,7.63
2018-09-15T08:38:59.190Z,6.87
2018-09-15T08:41:28.165Z,6.93
2018-09-15T08:43:57.049Z,7.87
2018-09-15T08:46:25.956Z,7.13
2018-09-15T08:48:54.894Z,7.33
2018-09-15T08:51:23.899Z,7.07
2018-09-15T08:53:52.796Z,7.40
2018-09-15T08:56:21.695Z,6.80
2018-09-15T08:58:50.612Z,6.87
2018-09-15T09:01:19.509Z,5.73
2018-09-15T09:03:48.831Z,6.03
2018-09-15T09:06:17.760Z,6.83
2018-09-15T09:08:46.695Z,6.30
2018-09-15T09:11:15.707Z,8.03
2018-09-15T09:13:44.660Z,6.93
2018-09-15T09:16:13.591Z,6.20
2018-09-15T09:18:42.508Z,8.83
2018-09-15T09:21:11.419Z,6.30
2018-09-15T09:23:40.304Z,7.33
2018-09-15T09:26:09.324Z,6.07
2018-09-15T09:28:38.267Z,6.60
2018-09-15T09:31:07.214Z,6.80
2018-09-15T09:33:36.170Z,6.40
2018-09-15T09:36:05.119Z,7.53
2018-09-15T09:38:34.045Z,5.53
2018-09-15T09:41:02.975Z,7.73
2018-09-15T09:43:31.887Z,6.07
2018-09-15T09:46:00.792Z,5.50
2018-09-15T09:48:29.789Z,5.40
2018-09-15T09:50:58.804Z,6.07
2018-09-15T09:53:28.247Z,6.37
2018-09-15T09:55:57.170Z,7.70
2018-09-15T09:58:26.140Z,6.50
2018-09-15T10:01:03.944Z,6.97
2018-09-15T10:03:32.872Z,5.30
2018-09-15T10:06:01.798Z,7.27
2018-09-15T10:08:30.728Z,5.37
2018-09-15T10:10:59.677Z,5.43
2018-09-15T10:13:28.594Z,8.17
2018-09-15T10:15:57.556Z,31.43
2018-09-15T10:18:26.463Z,6.47
2018-09-15T10:20:55.368Z,6.17
2018-09-15T10:23:24.304Z,7.73
2018-09-15T10:25:53.199Z,4.93
2018-09-15T10:28:22.119Z,5.57
2018-09-15T10:30:51.179Z,4.53
2018-09-15T10:33:20.223Z,5.93
2018-09-15T10:35:49.331Z,4.63
2018-09-15T10:38:18.255Z,5.60
2018-09-15T10:40:47.181Z,8.97
2018-09-15T10:43:16.171Z,4.57
2018-09-15T10:45:45.148Z,9.40
2018-09-15T10:48:14.076Z,5.30
2018-09-15T10:50:43.012Z,15.17
2018-09-15T10:53:11.921Z,5.67
2018-09-15T10:55:40.887Z,6.60
2018-09-15T10:58:09.792Z,6.57
2018-09-15T11:00:38.711Z,13.53
2018-09-15T11:03:07.667Z,6.63
2018-09-15T11:05:36.551Z,9.43
2018-09-15T11:08:05.528Z,5.50
2018-09-15T11:10:34.514Z,5.17
2018-09-15T11:13:03.571Z,5.83
2018-09-15T11:15:32.520Z,6.80
2018-09-15T11:18:01.660Z,6.17
2018-09-15T11:20:30.577Z,6.90
2018-09-15T11:22:59.483Z,9.47
2018-09-15T11:25:28.416Z,7.73
2018-09-15T11:27:57.383Z,9.47
2018-09-15T11:30:26.300Z,13.10
2018-09-15T11:32:55.232Z,5.23
2018-09-15T11:35:24.193Z,4.97
2018-09-15T11:37:53.067Z,4.97
2018-09-15T11:40:21.955Z,4.53
2018-09-15T11:42:50.890Z,6.23
2018-09-15T11:45:19.771Z,6.10
2018-09-15T11:47:48.729Z,5.17
2018-09-15T11:50:17.663Z,10.63
2018-09-15T11:52:46.972Z,5.87
2018-09-15T11:55:16.216Z,27.57
2018-09-15T11:57:45.167Z,9.20
2018-09-15T12:00:15.149Z,10.07
2018-09-15T12:02:44.099Z,8.40
2018-09-15T12:05:12.991Z,10.27
2018-09-15T12:07:41.882Z,7.53
2018-09-15T12:10:10.926Z,6.40
2018-09-15T12:12:39.823Z,7.13
2018-09-15T12:15:08.804Z,6.00
2018-09-15T12:17:37.722Z,11.37
2018-09-15T12:20:06.868Z,8.57
2018-09-15T12:22:35.999Z,6.43
2018-09-15T12:25:04.940Z,6.50
2018-09-15T12:27:33.844Z,5.93
2018-09-15T12:30:02.785Z,6.40
2018-09-15T12:32:31.704Z,6.07
2018-09-15T12:35:00.620Z,6.40
2018-09-15T12:37:29.573Z,6.23
2018-09-15T12:39:58.476Z,5.67
2018-09-15T12:42:27.363Z,6.50
2018-09-15T12:44:56.390Z,7.47
2018-09-15T12:47:25.287Z,6.30
2018-09-15T12:49:54.208Z,6.10
2018-09-15T12:52:23.185Z,7.57
2018-09-15T12:54:52.067Z,6.50
2018-09-15T12:57:20.963Z,9.87
2018-09-15T12:59:50.176Z,8.27
2018-09-15T13:02:19.076Z,14.03
2018-09-15T13:04:47.968Z,10.33
2018-09-15T13:07:16.888Z,8.13
2018-09-15T13:09:46.051Z,7.17
2018-09-15T13:12:15.349Z,6.97
2018-09-15T13:14:44.344Z,6.57
2018-09-15T13:17:13.346Z,6.40
2018-09-15T13:19:42.229Z,7.20
2018-09-15T13:22:11.250Z,6.80
2018-09-15T13:24:40.391Z,6.90
2018-09-15T13:27:09.299Z,8.07
2018-09-15T13:29:38.404Z,117.33
2018-09-15T13:32:07.551Z,8.17
2018-09-15T13:34:36.811Z,8.43
2018-09-15T13:37:05.964Z,8.83
2018-09-15T13:39:34.901Z,7.40
2018-09-15T13:42:03.906Z,8.23
2018-09-15T13:44:32.865Z,8.30
2018-09-15T13:47:02.167Z,8.77
2018-09-15T13:49:31.468Z,8.47
2018-09-15T13:52:00.662Z,8.10
2018-09-15T13:54:29.984Z,8.00
2018-09-15T13:56:59.219Z,7.77
2018-09-15T13:59:28.378Z,7.73
2018-09-15T14:01:57.712Z,8.33
2018-09-15T14:04:26.609Z,7.17
2018-09-15T14:06:55.578Z,8.03
2018-09-15T14:09:25.707Z,7.50
2018-09-15T14:11:54.768Z,9.10
2018-09-15T14:14:24.073Z,8.73
2018-09-15T14:16:53.417Z,8.33
2018-09-15T14:19:22.596Z,8.47
2018-09-15T14:21:51.681Z,7.83
2018-09-15T14:24:20.920Z,8.37
2018-09-15T14:26:50.183Z,8.67
2018-09-15T14:29:19.158Z,8.00
2018-09-15T14:31:48.072Z,8.77
2018-09-15T14:34:16.992Z,10.03
2018-09-15T14:36:45.908Z,8.77
2018-09-15T14:39:14.810Z,8.47
2018-09-15T14:41:43.729Z,8.93
2018-09-15T14:44:12.614Z,7.93
2018-09-15T14:46:41.565Z,9.83
2018-09-15T14:49:10.463Z,9.17
2018-09-15T14:51:39.419Z,9.80
2018-09-15T14:54:08.332Z,9.93
2018-09-15T14:56:37.243Z,8.63
2018-09-15T14:59:06.260Z,8.30
2018-09-15T15:01:35.168Z,8.53
2018-09-15T15:04:04.086Z,8.93
2018-09-15T15:06:32.981Z,8.67
2018-09-15T15:09:01.892Z,10.07
2018-09-15T15:11:30.814Z,8.83
2018-09-15T15:13:59.863Z,9.77
2018-09-15T15:16:28.748Z,9.17
2018-09-15T15:18:57.653Z,9.07
2018-09-15T15:21:26.560Z,9.43
2018-09-15T15:23:55.440Z,9.30
2018-09-15T15:26:24.403Z,8.97
2018-09-15T15:28:53.537Z,9.37
2018-09-15T15:31:22.703Z,8.97
2018-09-15T15:33:51.574Z,8.87
2018-09-15T15:36:20.572Z,9.77
2018-09-15T15:38:49.488Z,9.67
2018-09-15T15:41:18.403Z,8.80
2018-09-15T15:43:47.341Z,9.63
2018-09-15T15:46:16.215Z,8.07
2018-09-15T15:48:45.095Z,8.17
2018-09-15T15:51:13.960Z,8.90
2018-09-15T15:53:42.859Z,9.43
2018-09-15T15:56:11.824Z,8.97
2018-09-15T15:58:40.975Z,9.47
2018-09-15T16:01:10.678Z,9.30
2018-09-15T16:03:39.563Z,15.40
2018-09-15T16:06:08.486Z,8.87
2018-09-15T16:08:37.371Z,10.03
2018-09-15T16:11:06.450Z,10.00
2018-09-15T16:13:35.825Z,9.97
2018-09-15T16:16:05.132Z,9.23
2018-09-15T16:18:34.288Z,9.17
2018-09-15T16:21:03.642Z,9.77
2018-09-15T16:23:32.635Z,10.63
2018-09-15T16:26:01.564Z,12.40
2018-09-15T16:28:30.639Z,10.03
2018-09-15T16:30:59.556Z,10.93
2018-09-15T16:33:28.460Z,9.30
2018-09-15T16:35:57.409Z,11.03
2018-09-15T16:38:26.469Z,7.50
2018-09-15T16:40:55.430Z,17.93
2018-09-15T16:43:39.788Z,11.40
2018-09-15T16:46:08.746Z,15.70
2018-09-15T16:48:37.807Z,12.57
2018-09-15T16:51:06.843Z,9.57
2018-09-15T16:53:35.897Z,14.10
2018-09-15T16:56:04.832Z,14.80
2018-09-15T16:58:33.836Z,12.37
2018-09-15T17:01:02.828Z,13.43
2018-09-15T17:03:32.114Z,10.90
2018-09-15T17:06:01.170Z,11.80
2018-09-15T17:08:30.380Z,15.70
2018-09-15T17:10:59.387Z,31.50
2018-09-15T17:13:28.304Z,31.80
2018-09-15T17:15:57.221Z,13.00
2018-09-15T17:18:26.108Z,12.30
2018-09-15T17:20:54.995Z,13.50
2018-09-15T17:23:24.272Z,13.83
2018-09-15T17:25:53.193Z,12.13
2018-09-15T17:28:22.218Z,11.67
2018-09-15T17:30:51.239Z,11.93
2018-09-15T17:33:20.239Z,11.30
2018-09-15T17:35:49.162Z,11.27
2018-09-15T17:38:18.143Z,12.43
2018-09-15T17:40:47.091Z,16.50
2018-09-15T17:43:16.513Z,37.50
2018-09-15T17:45:45.513Z,43.50
2018-09-15T17:48:14.439Z,35.40
2018-09-15T17:50:45.343Z,47.73
2018-09-15T17:53:14.292Z,65.17
2018-09-15T17:55:43.272Z,90.10
2018-09-15T17:58:12.159Z,41.37
2018-09-15T18:00:41.191Z,39.00
2018-09-15T18:03:10.240Z,33.67
2018-09-15T18:05:39.135Z,57.03
2018-09-15T18:08:08.091Z,91.43
2018-09-15T18:10:37.032Z,42.83
2018-09-15T18:13:05.983Z,47.70
2018-09-15T18:15:34.903Z,33.67
2018-09-15T18:18:03.884Z,50.87
2018-09-15T18:20:32.822Z,51.23
2018-09-15T18:23:01.739Z,64.40
2018-09-15T18:25:30.724Z,70.33
2018-09-15T18:28:00.124Z,66.90
2018-09-15T18:30:29.008Z,52.90
2018-09-15T18:32:57.906Z,28.33
2018-09-15T18:35:26.828Z,51.47
2018-09-15T18:37:55.722Z,60.77
2018-09-15T18:40:24.712Z,50.93
2018-09-15T18:42:53.868Z,25.07
2018-09-15T18:45:22.945Z,43.03
2018-09-15T18:47:51.841Z,37.07
2018-09-15T18:50:20.804Z,35.07
2018-09-15T18:52:49.713Z,30.93
2018-09-15T18:55:18.652Z,17.20
2018-09-15T18:57:47.624Z,18.27
2018-09-15T19:00:16.721Z,24.10
2018-09-15T19:02:45.629Z,17.03
2018-09-15T19:05:14.531Z,21.60
2018-09-15T19:07:43.614Z,21.53
2018-09-15T19:10:12.532Z,21.37
2018-09-15T19:12:41.420Z,25.43
2018-09-15T19:15:10.458Z,23.73
2018-09-15T19:17:39.360Z,19.60
2018-09-15T19:20:08.315Z,17.63
2018-09-15T19:22:37.224Z,18.03
2018-09-15T19:25:07.992Z,16.13
2018-09-15T19:27:36.906Z,18.87
2018-09-15T19:30:06.505Z,17.43
2018-09-15T19:32:36.454Z,18.20
2018-09-15T19:35:05.440Z,14.20
2018-09-15T19:37:34.448Z,16.33
2018-09-15T19:40:03.352Z,23.70
2018-09-15T19:42:32.314Z,19.23
2018-09-15T19:45:01.278Z,18.27
2018-09-15T19:47:30.172Z,16.83
2018-09-15T19:49:59.103Z,12.40
2018-09-15T19:52:28.159Z,17.87
2018-09-15T19:54:57.009Z,13.97
2018-09-15T19:57:25.962Z,13.60
2018-09-15T19:59:54.922Z,16.07
2018-09-15T20:02:23.816Z,12.80
2018-09-15T20:04:52.767Z,15.13
2018-09-15T20:07:21.692Z,14.10
2018-09-15T20:09:50.704Z,14.77
2018-09-15T20:12:19.612Z,15.67
2018-09-15T20:14:48.573Z,15.10
2018-09-15T20:17:16.063Z,11.90
2018-09-15T20:19:43.517Z,15.97
2018-09-15T20:22:12.462Z,10.50
2018-09-15T20:24:41.364Z,15.10
2018-09-15T20:27:10.287Z,15.03
2018-09-15T20:29:39.172Z,14.50
2018-09-15T20:32:08.219Z,13.80
2018-09-15T20:34:37.825Z,14.33
2018-09-15T20:37:07.165Z,10.80
2018-09-15T20:39:36.088Z,10.67
2018-09-15T20:42:04.979Z,12.30
2018-09-15T20:44:33.887Z,12.20
2018-09-15T20:47:02.758Z,11.80
2018-09-15T20:49:31.675Z,12.87
2018-09-15T20:52:00.575Z,11.70
2018-09-15T20:54:29.466Z,11.73
2018-09-15T20:56:58.350Z,10.87
2018-09-15T20:59:27.310Z,10.57
2018-09-15T21:01:56.272Z,10.90
2018-09-15T21:04:25.152Z,11.40
2018-09-15T21:06:54.048Z,11.37
2018-09-15T21:09:23.012Z,10.40
2018-09-15T21:11:51.991Z,10.30
2018-09-15T21:14:20.974Z,9.37
2018-09-15T21:16:49.938Z,10.30
2018-09-15T21:19:18.896Z,10.90
2018-09-15T21:21:47.778Z,10.33
2018-09-15T21:24:16.694Z,10.03
2018-09-15T21:26:45.642Z,10.50
2018-09-15T21:29:14.549Z,9.33
2018-09-15T21:31:43.442Z,11.30
2018-09-15T21:34:12.374Z,9.30
2018-09-15T21:36:41.284Z,9.53
2018-09-15T21:39:12.468Z,9.93
2018-09-15T21:41:41.756Z,9.63
2018-09-15T21:44:10.708Z,9.60
2018-09-15T21:46:40.056Z,9.63
2018-09-15T21:49:09.080Z,9.77
2018-09-15T21:51:37.963Z,9.00
2018-09-15T21:54:06.892Z,9.13
2018-09-15T21:56:35.875Z,10.00
2018-09-15T21:59:04.852Z,10.17
2018-09-15T22:01:33.799Z,9.17
2018-09-15T22:04:07.862Z,9.60
2018-09-15T22:06:36.833Z,10.40
2018-09-15T22:09:08.403Z,9.93
2018-09-15T22:11:37.376Z,10.37
2018-09-15T22:14:06.311Z,10.20
2018-09-15T22:16:35.220Z,10.17
2018-09-15T22:19:04.153Z,10.03
2018-09-15T22:21:33.090Z,10.50
2018-09-15T22:24:02.028Z,10.07
2018-09-15T22:26:30.940Z,9.97
2018-09-15T22:28:59.889Z,10.20
2018-09-15T22:31:29.117Z,10.10
2018-09-15T22:33:58.645Z,9.33
2018-09-15T22:36:27.575Z,9.40
2018-09-15T22:38:56.496Z,9.47
2018-09-15T22:41:25.406Z,10.40
2018-09-15T22:43:54.286Z,9.30
2018-09-15T22:46:23.301Z,10.17
2018-09-15T22:48:52.200Z,10.27
2018-09-15T22:51:21.113Z,10.80
2018-09-15T22:53:49.991Z,9.67
2018-09-15T22:56:18.964Z,10.77
2018-09-15T22:58:47.903Z,11.00
2018-09-15T23:01:16.808Z,10.10
2018-09-15T23:03:45.737Z,10.43
2018-09-15T23:06:14.620Z,9.90
2018-09-15T23:08:43.523Z,10.60
2018-09-15T23:11:12.404Z,9.93
2018-09-15T23:13:41.360Z,10.83
2018-09-15T23:16:10.256Z,10.90
2018-09-15T23:18:39.143Z,10.43
2018-09-15T23:21:08.108Z,10.03
2018-09-15T23:23:37.004Z,10.17
2018-09-15T23:26:05.920Z,10.73
2018-09-15T23:28:34.808Z,10.70
2018-09-15T23:31:03.718Z,10.03
2018-09-15T23:33:32.603Z,9.97
2018-09-15T23:36:01.518Z,10.23
2018-09-15T23:38:30.435Z,9.17
2018-09-15T23:40:59.390Z,9.60
2018-09-15T23:43:28.272Z,9.37
2018-09-15T23:45:57.172Z,9.07
2018-09-15T23:48:26.108Z,9.93
2018-09-15T23:50:54.996Z,9.23
2018-09-15T23:53:23.891Z,8.73
2018-09-15T23:55:52.787Z,9.27
2018-09-15T23:58:21.696Z,9.30
